UAL1887 PHOG-PHNL
Flight info
| Callsign | UAL1887 |
|---|---|
| Flight time | 0h 28m |
| Altitude | 14000 |
| Route | MAUI5 OGG LNY JULLE5 |
| Aircraft | B38M/M-SDE1FGHILORVWXY/HB1 |
Departure
| Time | 2026-04-23 23:45 |
|---|---|
| Airport | Kahului International Airport (PHOG) |
Arrival
| Time | 2026-04-24 00:13 |
|---|---|
| Airport | Daniel K. Inouye International Airport (PHNL) |
| Time | Latitude | Longitude | Altitude | Speed | Heading |
|---|---|---|---|---|---|
| 2026-04-23 23:23 | 20.89437 | -156.43565 | 47 ft | 0 kts | 304° |
| 2026-04-23 23:35 | 20.89436 | -156.43563 | 47 ft | 2 kts | 304° |
| 2026-04-23 23:35 | 20.89421 | -156.43541 | 43 ft | 4 kts | 304° |
| 2026-04-23 23:35 | 20.89406 | -156.43517 | 44 ft | 4 kts | 304° |
| 2026-04-23 23:35 | 20.89392 | -156.43496 | 45 ft | 2 kts | 304° |
| 2026-04-23 23:36 | 20.89381 | -156.43472 | 45 ft | 4 kts | 279° |
| 2026-04-23 23:36 | 20.89384 | -156.43447 | 45 ft | 4 kts | 235° |
| 2026-04-23 23:36 | 20.89404 | -156.43428 | 44 ft | 4 kts | 213° |
| 2026-04-23 23:36 | 20.89418 | -156.43418 | 46 ft | 0 kts | 215° |
| 2026-04-23 23:39 | 20.89412 | -156.43422 | 44 ft | 3 kts | 215° |
| 2026-04-23 23:39 | 20.89389 | -156.43440 | 47 ft | 6 kts | 215° |
| 2026-04-23 23:39 | 20.89346 | -156.43472 | 47 ft | 9 kts | 215° |
| 2026-04-23 23:39 | 20.89285 | -156.43517 | 47 ft | 12 kts | 215° |
| 2026-04-23 23:40 | 20.89209 | -156.43574 | 47 ft | 14 kts | 215° |
| 2026-04-23 23:40 | 20.89124 | -156.43637 | 47 ft | 16 kts | 215° |
| 2026-04-23 23:40 | 20.89037 | -156.43702 | 47 ft | 12 kts | 211° |
| 2026-04-23 23:40 | 20.88997 | -156.43707 | 47 ft | 2 kts | 160° |
| 2026-04-23 23:41 | 20.88996 | -156.43706 | 47 ft | 0 kts | 156° |
| 2026-04-23 23:42 | 20.88995 | -156.43706 | 47 ft | 1 kts | 156° |
| 2026-04-23 23:43 | 20.88983 | -156.43697 | 47 ft | 4 kts | 138° |
| 2026-04-23 23:43 | 20.88958 | -156.43665 | 47 ft | 7 kts | 129° |
| 2026-04-23 23:43 | 20.88943 | -156.43614 | 47 ft | 7 kts | 54° |
| 2026-04-23 23:43 | 20.88953 | -156.43606 | 47 ft | 0 kts | 36° |
| 2026-04-23 23:44 | 20.88970 | -156.43593 | 47 ft | 16 kts | 36° |
| 2026-04-23 23:44 | 20.89316 | -156.43338 | 50 ft | 103 kts | 35° |
| 2026-04-23 23:45 | 20.90114 | -156.42741 | 150 ft | 167 kts | 35° |
| 2026-04-23 23:45 | 20.91084 | -156.41954 | 1105 ft | 174 kts | 44° |
| 2026-04-23 23:45 | 20.91723 | -156.40908 | 2327 ft | 169 kts | 48° |
| 2026-04-23 23:45 | 20.92777 | -156.40276 | 2744 ft | 190 kts | 12° |
| 2026-04-23 23:46 | 20.94138 | -156.40060 | 3329 ft | 201 kts | 11° |
| 2026-04-23 23:46 | 20.95459 | -156.40064 | 4410 ft | 189 kts | 355° |
| 2026-04-23 23:46 | 20.96832 | -156.40365 | 4516 ft | 211 kts | 340° |
| 2026-04-23 23:46 | 20.98173 | -156.41129 | 4638 ft | 227 kts | 330° |
| 2026-04-23 23:47 | 20.99552 | -156.42043 | 4788 ft | 245 kts | 329° |
| 2026-04-23 23:47 | 21.01056 | -156.43046 | 4841 ft | 263 kts | 329° |
| 2026-04-23 23:47 | 21.02644 | -156.44100 | 5494 ft | 272 kts | 329° |
| 2026-04-23 23:47 | 21.04299 | -156.45180 | 6345 ft | 280 kts | 329° |
| 2026-04-23 23:48 | 21.05936 | -156.46366 | 6718 ft | 287 kts | 315° |
| 2026-04-23 23:48 | 21.06897 | -156.48150 | 6756 ft | 282 kts | 282° |
| 2026-04-23 23:48 | 21.07021 | -156.50245 | 6915 ft | 284 kts | 264° |
| 2026-04-23 23:48 | 21.06463 | -156.52264 | 6958 ft | 284 kts | 238° |
| 2026-04-23 23:49 | 21.04138 | -156.55652 | 6988 ft | 282 kts | 233° |
| 2026-04-23 23:49 | 21.02983 | -156.57352 | 6999 ft | 282 kts | 233° |
| 2026-04-23 23:49 | 21.01827 | -156.59065 | 7004 ft | 284 kts | 234° |
| 2026-04-23 23:50 | 21.00667 | -156.60793 | 7004 ft | 284 kts | 234° |
| 2026-04-23 23:50 | 20.99521 | -156.62505 | 7109 ft | 287 kts | 234° |
| 2026-04-23 23:50 | 20.98359 | -156.64243 | 7972 ft | 286 kts | 234° |
| 2026-04-23 23:50 | 20.97191 | -156.65987 | 8869 ft | 291 kts | 235° |
| 2026-04-23 23:51 | 20.96002 | -156.67763 | 9744 ft | 295 kts | 235° |
| 2026-04-23 23:51 | 20.94792 | -156.69570 | 10476 ft | 305 kts | 236° |
| 2026-04-23 23:51 | 20.93536 | -156.71454 | 10894 ft | 323 kts | 236° |
| 2026-04-23 23:51 | 20.92200 | -156.73459 | 11430 ft | 336 kts | 236° |
| 2026-04-23 23:52 | 20.90832 | -156.75506 | 12246 ft | 340 kts | 236° |
| 2026-04-23 23:52 | 20.89440 | -156.77578 | 13085 ft | 344 kts | 236° |
| 2026-04-23 23:52 | 20.88028 | -156.79684 | 13792 ft | 352 kts | 236° |
| 2026-04-23 23:52 | 20.86609 | -156.81795 | 13985 ft | 357 kts | 236° |
| 2026-04-23 23:53 | 20.85123 | -156.84012 | 13995 ft | 375 kts | 236° |
| 2026-04-23 23:53 | 20.83571 | -156.86330 | 14003 ft | 384 kts | 237° |
| 2026-04-23 23:53 | 20.82419 | -156.88871 | 14014 ft | 383 kts | 258° |
| 2026-04-23 23:53 | 20.82283 | -156.91687 | 14041 ft | 380 kts | 279° |
| 2026-04-23 23:54 | 20.82876 | -156.94439 | 14058 ft | 380 kts | 285° |
| 2026-04-23 23:54 | 20.83483 | -156.97190 | 14053 ft | 380 kts | 285° |
| 2026-04-23 23:54 | 20.84074 | -156.99946 | 14057 ft | 380 kts | 284° |
| 2026-04-23 23:54 | 20.84657 | -157.02716 | 14051 ft | 380 kts | 284° |
| 2026-04-23 23:55 | 20.85234 | -157.05476 | 14043 ft | 381 kts | 284° |
| 2026-04-23 23:55 | 20.85809 | -157.08239 | 14035 ft | 381 kts | 284° |
| 2026-04-23 23:55 | 20.86383 | -157.11004 | 14022 ft | 381 kts | 284° |
| 2026-04-23 23:55 | 20.86958 | -157.13777 | 14014 ft | 381 kts | 284° |
| 2026-04-23 23:56 | 20.87532 | -157.16542 | 14005 ft | 381 kts | 284° |
| 2026-04-23 23:56 | 20.88097 | -157.19272 | 13992 ft | 380 kts | 284° |
| 2026-04-23 23:56 | 20.88662 | -157.21985 | 13984 ft | 364 kts | 284° |
| 2026-04-23 23:56 | 20.89202 | -157.24571 | 13954 ft | 349 kts | 285° |
| 2026-04-23 23:57 | 20.89725 | -157.27077 | 13720 ft | 340 kts | 284° |
| 2026-04-23 23:57 | 20.90063 | -157.28713 | 13434 ft | 339 kts | 284° |
| 2026-04-23 23:57 | 20.90734 | -157.31963 | 12909 ft | 335 kts | 285° |
| 2026-04-23 23:57 | 20.91233 | -157.34389 | 12524 ft | 333 kts | 285° |
| 2026-04-23 23:58 | 20.91725 | -157.36796 | 12149 ft | 330 kts | 284° |
| 2026-04-23 23:58 | 20.92059 | -157.38416 | 11881 ft | 328 kts | 284° |
| 2026-04-23 23:58 | 20.92567 | -157.40757 | 11559 ft | 324 kts | 288° |
| 2026-04-23 23:58 | 20.93109 | -157.43061 | 11420 ft | 315 kts | 283° |
| 2026-04-23 23:59 | 20.93542 | -157.45373 | 11040 ft | 321 kts | 283° |
| 2026-04-23 23:59 | 20.94002 | -157.47743 | 10651 ft | 323 kts | 283° |
| 2026-04-23 23:59 | 20.94460 | -157.50054 | 10444 ft | 316 kts | 283° |
| 2026-04-23 23:59 | 20.94915 | -157.52317 | 10302 ft | 306 kts | 283° |
| 2026-04-24 00:00 | 20.95360 | -157.54515 | 10164 ft | 298 kts | 283° |
| 2026-04-24 00:00 | 20.95792 | -157.56651 | 10041 ft | 289 kts | 283° |
| 2026-04-24 00:00 | 20.96328 | -157.58692 | 9839 ft | 282 kts | 290° |
| 2026-04-24 00:00 | 20.96984 | -157.60649 | 9486 ft | 282 kts | 290° |
| 2026-04-24 00:01 | 20.97631 | -157.62623 | 9152 ft | 281 kts | 290° |
| 2026-04-24 00:01 | 20.98272 | -157.64608 | 8828 ft | 280 kts | 289° |
| 2026-04-24 00:01 | 20.98903 | -157.66579 | 8521 ft | 279 kts | 289° |
| 2026-04-24 00:01 | 20.99520 | -157.68517 | 8206 ft | 278 kts | 289° |
| 2026-04-24 00:02 | 21.00138 | -157.70469 | 7907 ft | 276 kts | 289° |
| 2026-04-24 00:02 | 21.00754 | -157.72415 | 7586 ft | 276 kts | 290° |
| 2026-04-24 00:02 | 21.01372 | -157.74370 | 7258 ft | 276 kts | 290° |
| 2026-04-24 00:02 | 21.01988 | -157.76317 | 6950 ft | 275 kts | 290° |
| 2026-04-24 00:03 | 21.02598 | -157.78254 | 6695 ft | 273 kts | 290° |
| 2026-04-24 00:03 | 21.03200 | -157.80158 | 6383 ft | 273 kts | 290° |
| 2026-04-24 00:03 | 21.03808 | -157.82087 | 6055 ft | 273 kts | 290° |
| 2026-04-24 00:03 | 21.04417 | -157.84017 | 5755 ft | 273 kts | 291° |
| 2026-04-24 00:04 | 21.05023 | -157.85939 | 5413 ft | 274 kts | 291° |
| 2026-04-24 00:04 | 21.05639 | -157.87893 | 4991 ft | 279 kts | 291° |
| 2026-04-24 00:04 | 21.06252 | -157.89841 | 4638 ft | 280 kts | 291° |
| 2026-04-24 00:04 | 21.06872 | -157.91813 | 4351 ft | 278 kts | 291° |
| 2026-04-24 00:05 | 21.07488 | -157.93768 | 4117 ft | 274 kts | 292° |
| 2026-04-24 00:05 | 21.07864 | -157.95755 | 3917 ft | 274 kts | 272° |
| 2026-04-24 00:05 | 21.07901 | -157.97795 | 3817 ft | 272 kts | 280° |
| 2026-04-24 00:05 | 21.08305 | -157.99722 | 3752 ft | 267 kts | 291° |
| 2026-04-24 00:06 | 21.08931 | -158.01606 | 3720 ft | 267 kts | 295° |
| 2026-04-24 00:06 | 21.09647 | -158.03412 | 3718 ft | 259 kts | 299° |
| 2026-04-24 00:06 | 21.10451 | -158.05118 | 3690 ft | 254 kts | 303° |
| 2026-04-24 00:06 | 21.11369 | -158.06718 | 3684 ft | 250 kts | 307° |
| 2026-04-24 00:07 | 21.12352 | -158.08198 | 3668 ft | 243 kts | 312° |
| 2026-04-24 00:07 | 21.13416 | -158.09577 | 3661 ft | 237 kts | 315° |
| 2026-04-24 00:07 | 21.14568 | -158.10827 | 3651 ft | 233 kts | 328° |
| 2026-04-24 00:07 | 21.16016 | -158.11472 | 3631 ft | 223 kts | 358° |
| 2026-04-24 00:08 | 21.17505 | -158.11253 | 3598 ft | 219 kts | 25° |
| 2026-04-24 00:08 | 21.18745 | -158.10328 | 3524 ft | 218 kts | 47° |
| 2026-04-24 00:08 | 21.19721 | -158.09080 | 3392 ft | 217 kts | 51° |
| 2026-04-24 00:08 | 21.20659 | -158.07811 | 3217 ft | 218 kts | 52° |
| 2026-04-24 00:09 | 21.21592 | -158.06529 | 3043 ft | 216 kts | 52° |
| 2026-04-24 00:09 | 21.22513 | -158.05249 | 2803 ft | 215 kts | 52° |
| 2026-04-24 00:09 | 21.23403 | -158.04004 | 2571 ft | 207 kts | 52° |
| 2026-04-24 00:09 | 21.24250 | -158.02812 | 2312 ft | 194 kts | 52° |
| 2026-04-24 00:10 | 21.25039 | -158.01701 | 2064 ft | 176 kts | 53° |
| 2026-04-24 00:10 | 21.25726 | -158.00731 | 1857 ft | 150 kts | 52° |
| 2026-04-24 00:10 | 21.26310 | -157.99905 | 1673 ft | 129 kts | 53° |
| 2026-04-24 00:10 | 21.26837 | -157.99163 | 1521 ft | 124 kts | 54° |
| 2026-04-24 00:11 | 21.27350 | -157.98433 | 1361 ft | 122 kts | 52° |
| 2026-04-24 00:11 | 21.27864 | -157.97705 | 1162 ft | 123 kts | 52° |
| 2026-04-24 00:11 | 21.28391 | -157.96965 | 1001 ft | 125 kts | 53° |
| 2026-04-24 00:11 | 21.28921 | -157.96214 | 804 ft | 128 kts | 52° |
| 2026-04-24 00:12 | 21.29465 | -157.95444 | 663 ft | 131 kts | 53° |
| 2026-04-24 00:12 | 21.30006 | -157.94679 | 511 ft | 129 kts | 54° |
| 2026-04-24 00:12 | 21.30543 | -157.93916 | 309 ft | 127 kts | 54° |
| 2026-04-24 00:12 | 21.31087 | -157.93159 | 160 ft | 130 kts | 54° |
| 2026-04-24 00:13 | 21.31579 | -157.92458 | 35 ft | 126 kts | 56° |
| 2026-04-24 00:13 | 21.32025 | -157.91820 | 27 ft | 95 kts | 52° |
| 2026-04-24 00:13 | 21.32338 | -157.91414 | 26 ft | 44 kts | 31° |
| 2026-04-24 00:13 | 21.32444 | -157.91359 | 26 ft | 12 kts | 25° |
| 2026-04-24 00:14 | 21.32535 | -157.91336 | 26 ft | 15 kts | 11° |
| 2026-04-24 00:14 | 21.32644 | -157.91317 | 26 ft | 14 kts | 9° |
| 2026-04-24 00:14 | 21.32719 | -157.91304 | 26 ft | 12 kts | 9° |
| 2026-04-24 00:14 | 21.32774 | -157.91350 | 26 ft | 13 kts | 269° |
| 2026-04-24 00:15 | 21.32774 | -157.91457 | 26 ft | 15 kts | 270° |
| 2026-04-24 00:15 | 21.32774 | -157.91555 | 26 ft | 11 kts | 270° |
| 2026-04-24 00:15 | 21.32775 | -157.91636 | 26 ft | 11 kts | 270° |
| 2026-04-24 00:15 | 21.32775 | -157.91723 | 26 ft | 10 kts | 270° |
| 2026-04-24 00:16 | 21.32792 | -157.91770 | 26 ft | 7 kts | 332° |
| 2026-04-24 00:16 | 21.32828 | -157.91759 | 27 ft | 6 kts | 36° |
| 2026-04-24 00:16 | 21.32866 | -157.91729 | 27 ft | 6 kts | 37° |
| 2026-04-24 00:16 | 21.32882 | -157.91715 | 27 ft | 3 kts | 38° |
| 2026-04-24 00:17 | 21.32886 | -157.91712 | 27 ft | 0 kts | 38° |